Time;durP1;ratioP1;P1;durP2;ratioP2;P2;SDS_P1;SDS_P2;PMS_P1;PMS_P2;Temp;Humidity;BMP_temperature;BMP_pressure;BME280_temperature;BME280_humidity;BME280_pressure;Samples;Min_cycle;Max_cycle;Signal;HPM_P1;HPM_P2
2024/03/01 00:01:44;;;;;;;10.18;4.43;;;13.00;97.10;;;;;;5091995;28;20024;-71
2024/03/01 00:04:10;;;;;;;9.00;4.85;;;13.00;97.00;;;;;;5088169;28;20422;-71
2024/03/01 00:06:35;;;;;;;8.80;4.93;;;13.00;96.90;;;;;;5092066;28;20528;-72
2024/03/01 00:09:01;;;;;;;11.13;4.03;;;13.00;96.90;;;;;;5097146;28;20070;-72
2024/03/01 00:11:27;;;;;;;8.70;3.65;;;13.10;96.90;;;;;;5089036;28;20024;-71
2024/03/01 00:13:52;;;;;;;7.10;4.32;;;13.10;96.90;;;;;;5088363;28;20032;-71
2024/03/01 00:16:19;;;;;;;5.97;3.72;;;13.10;96.80;;;;;;5090740;28;20026;-71
2024/03/01 00:18:51;;;;;;;8.02;4.30;;;13.00;96.90;;;;;;5094898;28;20116;-72
2024/03/01 00:21:17;;;;;;;4.60;2.95;;;13.00;96.80;;;;;;5094189;28;20024;-71
2024/03/01 00:23:43;;;;;;;4.50;2.47;;;13.00;96.70;;;;;;5089090;28;20039;-71
2024/03/01 00:26:09;;;;;;;11.95;4.70;;;13.10;96.80;;;;;;5088763;28;20077;-71
2024/03/01 00:28:35;;;;;;;10.18;4.18;;;13.00;96.70;;;;;;5091308;28;20039;-71
2024/03/01 00:31:04;;;;;;;7.07;3.53;;;13.00;96.70;;;;;;5101018;28;20081;-71
2024/03/01 00:33:30;;;;;;;10.23;4.90;;;13.00;96.70;;;;;;5103417;28;20056;-71
2024/03/01 00:35:55;;;;;;;12.02;4.60;;;13.00;96.70;;;;;;5091537;28;20454;-71
2024/03/01 00:38:21;;;;;;;7.60;4.18;;;12.90;96.60;;;;;;5087944;28;20439;-71
2024/03/01 00:40:46;;;;;;;8.73;4.43;;;12.90;96.60;;;;;;5093964;28;20032;-71
2024/03/01 00:43:12;;;;;;;8.23;4.65;;;12.90;96.60;;;;;;5085126;28;20119;-71
2024/03/01 00:45:39;;;;;;;7.55;3.92;;;12.90;96.60;;;;;;5085450;28;20058;-71
2024/03/01 00:48:09;;;;;;;10.82;3.88;;;12.90;96.70;;;;;;5086506;28;20117;-71
2024/03/01 00:50:35;;;;;;;10.05;4.95;;;13.00;96.70;;;;;;5093899;28;20032;-71
2024/03/01 00:53:01;;;;;;;9.68;4.25;;;13.00;96.70;;;;;;5105411;28;20031;-71
2024/03/01 00:55:27;;;;;;;11.20;4.53;;;12.90;96.70;;;;;;5101689;28;20060;-71
2024/03/01 00:57:53;;;;;;;7.10;4.40;;;13.00;96.80;;;;;;5087127;28;20059;-71
2024/03/01 01:00:18;;;;;;;7.05;3.67;;;13.00;96.80;;;;;;5094167;28;20470;-71
2024/03/01 01:02:44;;;;;;;7.88;4.20;;;13.00;96.70;;;;;;5092930;28;20032;-71
2024/03/01 01:05:11;;;;;;;8.43;3.78;;;13.00;96.80;;;;;;5107458;28;20032;-71
2024/03/01 01:07:38;;;;;;;6.47;3.35;;;13.00;96.70;;;;;;5095438;28;20154;-71
2024/03/01 01:10:04;;;;;;;8.90;5.10;;;13.00;96.70;;;;;;5100950;28;20114;-71
2024/03/01 01:12:31;;;;;;;8.00;3.85;;;13.00;96.80;;;;;;5110325;28;20028;-71
2024/03/01 01:14:56;;;;;;;6.35;3.75;;;13.00;96.60;;;;;;5103130;28;20043;-71
2024/03/01 01:17:26;;;;;;;9.50;4.60;;;13.00;96.50;;;;;;5092789;28;20480;-71
2024/03/01 01:19:55;;;;;;;7.75;4.35;;;13.10;96.50;;;;;;5100694;28;20054;-72
2024/03/01 01:22:21;;;;;;;11.68;4.60;;;13.10;96.70;;;;;;5096242;28;20032;-71
2024/03/01 01:24:46;;;;;;;7.35;4.50;;;13.00;96.40;;;;;;5101164;28;20035;-71
2024/03/01 01:27:12;;;;;;;5.72;3.45;;;13.10;96.40;;;;;;5095452;28;20476;-71
2024/03/01 01:29:38;;;;;;;8.95;4.85;;;13.10;96.50;;;;;;5104542;28;20044;-71
2024/03/01 01:32:04;;;;;;;8.88;4.53;;;13.00;96.60;;;;;;5090597;28;20064;-72
2024/03/01 01:34:29;;;;;;;5.32;3.13;;;13.10;96.40;;;;;;5107326;28;20151;-71
2024/03/01 01:36:55;;;;;;;10.75;4.20;;;13.00;96.30;;;;;;5103192;28;20085;-71
2024/03/01 01:39:21;;;;;;;7.18;4.30;;;13.10;96.30;;;;;;5102636;28;20115;-71
2024/03/01 01:41:47;;;;;;;6.95;3.60;;;13.10;96.20;;;;;;5102111;28;20114;-71
2024/03/01 01:44:13;;;;;;;8.23;3.75;;;13.10;96.20;;;;;;5093301;28;20387;-71
2024/03/01 01:46:38;;;;;;;10.98;4.97;;;13.10;96.20;;;;;;5102862;28;20048;-71
2024/03/01 01:49:05;;;;;;;6.00;3.33;;;13.10;96.30;;;;;;5100479;28;20040;-71
2024/03/01 01:51:32;;;;;;;6.97;4.10;;;13.10;96.10;;;;;;5105031;28;20031;-71
2024/03/01 01:53:58;;;;;;;5.55;3.63;;;13.10;96.10;;;;;;5100508;28;20055;-70
2024/03/01 01:56:25;;;;;;;6.90;3.63;;;13.20;96.10;;;;;;5091869;28;20077;-71
2024/03/01 01:58:51;;;;;;;8.30;4.38;;;13.10;96.10;;;;;;5104093;28;20042;-71
2024/03/01 02:01:18;;;;;;;8.15;4.18;;;13.10;96.10;;;;;;5101032;28;20427;-70
2024/03/01 02:03:45;;;;;;;6.25;3.85;;;13.00;96.10;;;;;;5091197;28;20075;-71
2024/03/01 02:06:11;;;;;;;6.10;3.90;;;13.10;96.30;;;;;;5103754;28;20036;-71
2024/03/01 02:08:40;;;;;;;8.07;4.10;;;13.10;96.20;;;;;;5094443;28;20032;-71
2024/03/01 02:11:06;;;;;;;10.18;4.00;;;13.00;96.10;;;;;;5095141;28;20027;-70
2024/03/01 02:13:32;;;;;;;11.25;4.60;;;13.00;96.10;;;;;;5104168;28;20031;-70
2024/03/01 02:15:58;;;;;;;7.32;4.70;;;13.00;96.10;;;;;;5104234;27;20125;-71
2024/03/01 02:18:24;;;;;;;9.93;4.68;;;13.00;96.10;;;;;;5113911;27;20071;-70
2024/03/01 02:21:06;;;;;;;6.45;3.60;;;13.00;96.10;;;;;;5093049;27;20448;-71
2024/03/01 02:23:33;;;;;;;8.48;3.53;;;13.00;96.10;;;;;;5094611;28;20043;-70
2024/03/01 02:25:59;;;;;;;8.15;4.43;;;13.00;96.20;;;;;;5121031;27;20069;-70
2024/03/01 02:28:25;;;;;;;7.05;3.67;;;13.00;96.10;;;;;;5110192;28;20108;-70
2024/03/01 02:30:51;;;;;;;3.92;2.40;;;13.00;96.10;;;;;;5090036;28;20468;-70
2024/03/01 02:33:18;;;;;;;6.93;3.97;;;13.00;96.20;;;;;;5103473;27;20041;-70
2024/03/01 02:35:45;;;;;;;8.02;4.30;;;13.00;96.30;;;;;;5100050;27;20036;-71
2024/03/01 02:38:11;;;;;;;5.85;3.17;;;13.00;96.20;;;;;;5089814;28;20464;-70
2024/03/01 02:40:36;;;;;;;7.47;3.50;;;13.00;96.10;;;;;;5090948;28;20024;-71
2024/03/01 02:43:02;;;;;;;5.63;2.92;;;13.00;96.10;;;;;;5110295;28;20085;-70
2024/03/01 02:45:28;;;;;;;5.63;3.65;;;13.00;96.10;;;;;;5104145;28;20031;-70
2024/03/01 02:47:54;;;;;;;8.80;4.50;;;13.00;96.20;;;;;;5102154;28;20064;-70
2024/03/01 02:50:19;;;;;;;7.80;3.30;;;13.00;96.30;;;;;;5103223;27;20470;-71
2024/03/01 02:52:45;;;;;;;3.95;2.30;;;13.00;96.20;;;;;;5092172;27;20032;-71
2024/03/01 02:55:11;;;;;;;6.32;2.97;;;13.00;96.20;;;;;;5088853;28;20042;-71
2024/03/01 02:57:37;;;;;;;6.57;3.83;;;13.00;96.20;;;;;;5088790;28;20085;-71
2024/03/01 03:00:05;;;;;;;9.15;4.45;;;13.00;96.10;;;;;;5095234;28;20429;-70
2024/03/01 03:02:34;;;;;;;10.07;4.30;;;13.00;96.20;;;;;;5108154;28;20566;-71
2024/03/01 03:05:00;;;;;;;8.55;4.38;;;13.00;96.20;;;;;;5088326;27;20036;-70
2024/03/01 03:07:26;;;;;;;8.15;3.40;;;13.00;96.20;;;;;;5116537;27;20027;-71
2024/03/01 03:09:52;;;;;;;11.00;4.85;;;13.10;96.20;;;;;;5122982;27;20043;-70
2024/03/01 03:12:18;;;;;;;9.07;4.18;;;13.00;96.30;;;;;;5108672;28;20068;-71
2024/03/01 03:14:43;;;;;;;6.05;3.13;;;13.10;96.10;;;;;;5100560;27;20031;-70
2024/03/01 03:17:10;;;;;;;5.30;2.97;;;13.00;96.50;;;;;;5096048;28;20046;-71
2024/03/01 03:19:36;;;;;;;8.80;4.65;;;13.00;96.50;;;;;;5100953;28;20108;-71
2024/03/01 03:22:08;;;;;;;8.20;4.63;;;13.00;96.50;;;;;;5089462;28;20500;-71
2024/03/01 03:24:35;;;;;;;6.95;4.10;;;13.00;96.40;;;;;;5101994;27;20091;-71
2024/03/01 03:27:00;;;;;;;7.68;4.00;;;13.00;96.40;;;;;;5094177;28;20704;-70
2024/03/01 03:29:26;;;;;;;9.15;5.00;;;13.10;96.20;;;;;;5091606;28;20035;-71
2024/03/01 03:31:52;;;;;;;8.40;4.32;;;13.10;96.40;;;;;;5109252;28;20043;-71
2024/03/01 03:34:17;;;;;;;8.10;3.25;;;13.10;96.10;;;;;;5093036;28;20035;-71
2024/03/01 03:36:43;;;;;;;9.60;4.32;;;13.10;96.20;;;;;;5101666;28;20020;-72
2024/03/01 03:39:09;;;;;;;9.60;4.97;;;13.10;96.10;;;;;;5090854;28;20515;-72
2024/03/01 03:41:35;;;;;;;9.75;4.55;;;13.10;96.30;;;;;;5097124;28;20455;-73
2024/03/01 03:44:01;;;;;;;9.05;5.00;;;13.10;96.10;;;;;;5090648;28;20032;-73
2024/03/01 03:46:27;;;;;;;8.52;4.18;;;13.10;96.10;;;;;;5094781;28;20028;-70
2024/03/01 03:48:53;;;;;;;8.77;4.75;;;13.10;96.10;;;;;;5089471;28;20043;-70
2024/03/01 03:51:29;;;;;;;6.70;4.03;;;13.10;96.20;;;;;;5088624;28;20441;-70
2024/03/01 03:53:58;;;;;;;8.52;4.65;;;13.10;96.00;;;;;;5088228;28;20105;-70
2024/03/01 03:56:23;;;;;;;9.20;4.88;;;13.10;96.10;;;;;;5100498;28;20116;-70
2024/03/01 03:58:50;;;;;;;8.43;4.72;;;13.10;96.20;;;;;;5095457;28;20088;-70
2024/03/01 04:01:16;;;;;;;11.23;5.38;;;13.10;96.00;;;;;;5104834;28;21630;-71
2024/03/01 04:03:42;;;;;;;9.57;5.35;;;13.10;96.10;;;;;;5099066;28;20036;-71
2024/03/01 04:06:08;;;;;;;9.80;5.05;;;13.10;96.10;;;;;;5095105;28;20024;-70
2024/03/01 04:08:38;;;;;;;9.82;5.38;;;13.10;96.20;;;;;;5101874;28;20704;-71
2024/03/01 04:11:05;;;;;;;17.77;5.72;;;13.10;96.00;;;;;;5102048;28;20192;-71
2024/03/01 04:13:36;;;;;;;15.10;5.43;;;13.00;96.00;;;;;;5095106;28;20086;-71
2024/03/01 04:16:06;;;;;;;10.80;6.25;;;13.00;96.00;;;;;;5089942;28;20040;-71
2024/03/01 04:18:37;;;;;;;11.10;5.43;;;13.00;96.30;;;;;;5091874;28;20119;-71
2024/03/01 04:21:05;;;;;;;11.82;6.15;;;12.90;96.30;;;;;;5088774;28;20036;-71
2024/03/01 04:23:31;;;;;;;13.48;7.05;;;12.90;96.30;;;;;;5089216;28;20044;-71
2024/03/01 04:25:57;;;;;;;10.73;6.50;;;12.90;96.40;;;;;;5089916;28;20039;-71
2024/03/01 04:28:26;;;;;;;14.48;6.07;;;12.80;96.30;;;;;;5088793;28;20047;-71
2024/03/01 04:30:52;;;;;;;10.07;5.80;;;12.90;96.30;;;;;;5092065;28;20027;-71
2024/03/01 04:33:18;;;;;;;13.20;6.43;;;12.80;96.50;;;;;;5109205;28;20054;-71
2024/03/01 04:35:44;;;;;;;12.95;6.75;;;12.80;96.40;;;;;;5089726;28;20039;-71
2024/03/01 04:38:10;;;;;;;12.02;6.55;;;12.80;96.20;;;;;;5087913;28;20032;-71
2024/03/01 04:40:40;;;;;;;13.15;6.30;;;12.70;96.40;;;;;;5100419;28;20028;-71
2024/03/01 04:43:06;;;;;;;13.13;7.97;;;12.70;96.40;;;;;;5098015;28;20049;-71
2024/03/01 04:45:32;;;;;;;14.43;7.85;;;12.70;96.50;;;;;;5100557;28;20118;-70
2024/03/01 04:48:01;;;;;;;14.55;7.90;;;12.70;96.70;;;;;;5098791;28;20034;-71
2024/03/01 04:50:27;;;;;;;15.77;7.40;;;12.60;96.70;;;;;;5104881;28;20051;-71
2024/03/01 04:52:52;;;;;;;15.57;8.00;;;12.60;96.50;;;;;;5092678;28;20372;-71
2024/03/01 04:55:18;;;;;;;13.65;7.40;;;12.60;96.90;;;;;;5097879;28;20102;-71
2024/03/01 04:57:44;;;;;;;17.13;7.82;;;12.60;96.70;;;;;;5091710;28;20028;-71
2024/03/01 05:00:12;;;;;;;14.75;7.93;;;12.60;96.60;;;;;;5097924;28;20482;-71
2024/03/01 05:02:45;;;;;;;16.52;8.50;;;12.50;96.80;;;;;;5100019;28;20027;-71
2024/03/01 05:05:14;;;;;;;14.07;7.50;;;12.50;96.60;;;;;;5107924;28;20032;-71
2024/03/01 05:07:40;;;;;;;14.43;7.68;;;12.50;96.70;;;;;;5098921;28;20062;-71
2024/03/01 05:10:10;;;;;;;17.05;9.63;;;12.50;96.70;;;;;;5103428;28;20043;-71
2024/03/01 05:12:38;;;;;;;14.57;8.77;;;12.50;97.00;;;;;;5097492;28;20023;-71
2024/03/01 05:15:05;;;;;;;17.25;7.60;;;12.50;96.90;;;;;;5095332;28;20118;-71
2024/03/01 05:17:35;;;;;;;14.35;8.02;;;12.50;96.60;;;;;;5098727;28;20515;-71
2024/03/01 05:20:08;;;;;;;16.27;8.82;;;12.50;96.60;;;;;;5100941;28;20032;-72
2024/03/01 05:22:36;;;;;;;16.75;8.55;;;12.50;96.60;;;;;;5099196;28;20034;-71
2024/03/01 05:25:14;;;;;;;18.13;8.93;;;12.50;96.60;;;;;;5097778;27;20081;-71
2024/03/01 05:27:46;;;;;;;17.20;7.80;;;12.50;96.70;;;;;;5089559;28;20039;-71
2024/03/01 05:30:15;;;;;;;16.67;8.70;;;12.60;96.50;;;;;;5104229;28;20089;-71
2024/03/01 05:32:42;;;;;;;10.95;6.88;;;12.60;96.50;;;;;;5090893;28;20468;-71
2024/03/01 05:35:09;;;;;;;25.85;7.00;;;12.60;96.40;;;;;;5104035;28;20554;-72
2024/03/01 05:37:35;;;;;;;14.38;7.97;;;12.60;96.40;;;;;;5094916;28;20410;-72
2024/03/01 05:40:14;;;;;;;11.63;6.97;;;12.60;96.50;;;;;;5097260;28;20031;-71
2024/03/01 05:42:44;;;;;;;16.02;7.60;;;12.60;96.60;;;;;;5096119;28;20036;-72
2024/03/01 05:45:11;;;;;;;15.73;7.93;;;12.60;96.60;;;;;;5101892;28;20051;-72
2024/03/01 05:47:37;;;;;;;15.75;7.40;;;12.60;96.70;;;;;;5100141;28;20028;-71
2024/03/01 05:50:04;;;;;;;12.48;7.05;;;12.50;96.70;;;;;;5093275;28;20112;-71
2024/03/01 05:52:31;;;;;;;12.35;7.38;;;12.50;96.60;;;;;;5100716;28;20105;-71
2024/03/01 05:54:57;;;;;;;17.05;7.70;;;12.50;96.90;;;;;;5090997;28;20051;-71
2024/03/01 05:57:22;;;;;;;14.60;7.10;;;12.50;97.10;;;;;;5100975;28;20032;-71
2024/03/01 05:59:48;;;;;;;14.70;7.93;;;12.50;96.70;;;;;;5097613;28;20032;-72
2024/03/01 06:02:13;;;;;;;12.63;5.93;;;12.50;96.60;;;;;;5096687;28;20062;-71
2024/03/01 06:04:39;;;;;;;14.90;7.32;;;12.50;96.70;;;;;;5100413;28;20028;-72
2024/03/01 06:07:05;;;;;;;15.45;7.35;;;12.50;96.60;;;;;;5095265;28;20032;-72
2024/03/01 06:09:31;;;;;;;13.60;7.45;;;12.50;96.60;;;;;;5091331;28;20123;-71
2024/03/01 06:11:56;;;;;;;14.23;7.30;;;12.60;96.60;;;;;;5093410;28;20032;-71
2024/03/01 06:14:22;;;;;;;15.15;7.32;;;12.50;96.50;;;;;;5102247;28;20061;-72
2024/03/01 06:16:49;;;;;;;13.63;6.03;;;12.60;96.40;;;;;;5094876;28;20106;-72
2024/03/01 06:19:14;;;;;;;12.05;6.22;;;12.60;96.30;;;;;;5101200;28;20023;-71
2024/03/01 06:21:41;;;;;;;15.32;7.00;;;12.60;96.20;;;;;;5093364;28;20016;-72
2024/03/01 06:24:07;;;;;;;13.88;7.25;;;12.70;96.20;;;;;;5092613;27;20031;-72
2024/03/01 06:26:33;;;;;;;13.75;6.78;;;12.70;96.20;;;;;;5094688;28;20028;-70
2024/03/01 06:28:58;;;;;;;15.13;6.22;;;12.70;96.20;;;;;;5090934;28;20394;-73
2024/03/01 06:31:24;;;;;;;13.07;7.45;;;12.70;96.20;;;;;;5095393;28;20032;-73
2024/03/01 06:33:49;;;;;;;9.93;5.40;;;12.70;96.30;;;;;;5089445;28;20028;-72
2024/03/01 06:36:15;;;;;;;13.85;6.28;;;12.70;96.20;;;;;;5091291;28;20118;-72
2024/03/01 06:38:41;;;;;;;16.50;8.90;;;12.70;96.30;;;;;;5099528;28;20023;-72
2024/03/01 06:41:08;;;;;;;12.73;7.65;;;12.70;96.20;;;;;;5107120;28;20409;-72
2024/03/01 06:43:34;;;;;;;13.65;7.85;;;12.70;96.20;;;;;;5096570;28;20510;-72
2024/03/01 06:46:01;;;;;;;11.27;6.40;;;12.70;96.30;;;;;;5095324;28;20495;-73
2024/03/01 06:48:27;;;;;;;17.23;8.00;;;12.70;96.20;;;;;;5090412;28;20031;-71
2024/03/01 06:50:53;;;;;;;11.60;5.95;;;12.70;96.20;;;;;;5089200;28;20046;-72
2024/03/01 06:53:19;;;;;;;17.77;7.40;;;12.70;96.20;;;;;;5089244;28;20048;-71
2024/03/01 06:55:45;;;;;;;11.88;5.85;;;12.70;96.10;;;;;;5100452;28;20040;-71
2024/03/01 06:58:10;;;;;;;10.77;5.53;;;12.70;96.10;;;;;;5097790;28;20410;-72
2024/03/01 07:00:36;;;;;;;14.00;6.32;;;12.70;96.10;;;;;;5106993;28;20027;-72
2024/03/01 07:03:02;;;;;;;12.00;5.10;;;12.70;96.10;;;;;;5090108;28;20032;-72
2024/03/01 07:05:29;;;;;;;10.73;5.63;;;12.70;96.20;;;;;;5088759;28;20032;-72
2024/03/01 07:07:55;;;;;;;19.35;7.95;;;12.60;96.20;;;;;;5098477;28;20039;-72
2024/03/01 07:10:21;;;;;;;13.13;7.03;;;12.60;96.20;;;;;;5092162;28;20032;-72
2024/03/01 07:12:47;;;;;;;9.80;5.00;;;12.50;96.30;;;;;;5087217;28;20032;-72
2024/03/01 07:15:13;;;;;;;8.10;4.22;;;12.50;96.40;;;;;;5088000;28;20127;-72
2024/03/01 07:17:40;;;;;;;8.23;3.80;;;12.50;96.60;;;;;;5092122;28;20088;-71
2024/03/01 07:20:06;;;;;;;11.13;4.65;;;12.50;96.60;;;;;;5092590;28;20027;-72
2024/03/01 07:22:32;;;;;;;10.43;6.00;;;12.40;96.90;;;;;;5090004;28;20145;-72
2024/03/01 07:24:57;;;;;;;11.32;5.22;;;12.40;96.70;;;;;;5099802;28;20130;-71
2024/03/01 07:27:23;;;;;;;12.10;5.80;;;12.40;96.80;;;;;;5094410;28;20028;-71
2024/03/01 07:29:49;;;;;;;8.80;4.15;;;12.30;96.90;;;;;;5100417;28;20067;-72
2024/03/01 07:32:14;;;;;;;10.20;3.80;;;12.30;97.00;;;;;;5094839;28;20474;-71
2024/03/01 07:34:40;;;;;;;9.85;4.75;;;12.20;97.10;;;;;;5088699;28;20032;-71
2024/03/01 07:37:06;;;;;;;9.32;4.78;;;12.10;97.30;;;;;;5092708;28;20467;-71
2024/03/01 07:39:31;;;;;;;11.40;5.50;;;12.00;97.40;;;;;;5092268;28;20880;-72
2024/03/01 07:41:57;;;;;;;9.10;4.97;;;11.90;97.60;;;;;;5088595;28;20115;-71
2024/03/01 07:44:23;;;;;;;10.30;5.25;;;11.80;97.90;;;;;;5089943;28;20067;-71
2024/03/01 07:46:55;;;;;;;7.95;4.50;;;11.70;98.00;;;;;;5098991;28;20028;-71
2024/03/01 07:49:21;;;;;;;15.18;5.50;;;11.60;98.20;;;;;;5102157;28;20048;-71
2024/03/01 07:51:50;;;;;;;7.30;3.38;;;11.50;98.40;;;;;;5090833;28;20035;-72
2024/03/01 07:54:16;;;;;;;3.88;2.15;;;11.40;98.40;;;;;;5088163;28;20048;-71
2024/03/01 07:56:41;;;;;;;2.10;1.38;;;11.30;98.40;;;;;;5091316;28;20039;-71
2024/03/01 07:59:08;;;;;;;2.05;1.58;;;11.20;98.50;;;;;;5088987;28;20492;-71
2024/03/01 08:01:33;;;;;;;3.15;1.52;;;11.10;98.50;;;;;;5088447;28;20372;-72
2024/03/01 08:03:59;;;;;;;2.55;1.27;;;11.00;98.90;;;;;;5088227;28;20039;-71
2024/03/01 08:06:25;;;;;;;0.95;0.80;;;11.00;98.80;;;;;;5089127;28;20082;-71
2024/03/01 08:08:51;;;;;;;4.40;1.20;;;10.90;98.90;;;;;;5086900;28;20514;-72
2024/03/01 08:11:41;;;;;;;1.52;0.90;;;10.90;98.80;;;;;;5090195;28;20036;-72
2024/03/01 08:14:20;;;;;;;1.88;1.05;;;10.90;98.80;;;;;;5090263;28;20043;-71
2024/03/01 08:16:50;;;;;;;0.65;0.65;;;10.80;98.80;;;;;;5089192;28;20036;-71
2024/03/01 08:19:16;;;;;;;1.55;1.00;;;10.80;99.20;;;;;;5096746;28;20379;-71
2024/03/01 08:21:42;;;;;;;2.40;0.82;;;10.80;99.20;;;;;;5093639;28;20035;-71
2024/03/01 08:24:09;;;;;;;0.70;0.70;;;10.80;99.20;;;;;;5103674;28;20032;-71
2024/03/01 08:26:35;;;;;;;0.57;0.57;;;10.80;99.00;;;;;;5090453;28;20054;-71
2024/03/01 08:29:01;;;;;;;1.33;0.75;;;10.80;99.20;;;;;;5094247;28;20070;-71
2024/03/01 08:31:34;;;;;;;1.65;0.82;;;10.80;98.70;;;;;;5098492;28;20463;-71
2024/03/01 08:34:24;;;;;;;4.25;1.10;;;10.80;98.90;;;;;;5097855;28;20467;-71
2024/03/01 08:36:52;;;;;;;0.60;0.60;;;10.80;98.90;;;;;;5094839;28;20035;-72
2024/03/01 08:39:19;;;;;;;1.45;0.93;;;10.70;98.70;;;;;;5091293;28;20035;-70
2024/03/01 08:41:48;;;;;;;2.00;0.90;;;10.70;98.90;;;;;;5102237;28;20031;-71
2024/03/01 08:44:55;;;;;;;5.63;0.70;;;10.70;98.80;;;;;;5098802;28;20036;-71
2024/03/01 08:47:30;;;;;;;1.35;0.82;;;10.70;98.90;;;;;;5096222;28;20043;-72
2024/03/01 08:50:50;;;;;;;3.78;0.80;;;10.70;98.90;;;;;;5101933;28;20050;-71
2024/03/01 08:53:33;;;;;;;1.38;0.88;;;10.60;98.90;;;;;;5020211;28;20647;-71
2024/03/01 08:55:59;;;;;;;1.20;1.10;;;10.70;98.90;;;;;;5087383;28;20039;-71
2024/03/01 08:58:25;;;;;;;0.50;0.50;;;10.70;98.80;;;;;;5100336;28;20434;-71
2024/03/01 09:00:54;;;;;;;0.50;0.32;;;10.70;99.00;;;;;;5097730;28;20027;-71
2024/03/01 09:03:24;;;;;;;0.93;0.93;;;10.70;99.20;;;;;;5099782;28;20047;-71
2024/03/01 09:05:55;;;;;;;2.38;1.17;;;10.70;99.10;;;;;;5094307;28;20046;-71
2024/03/01 09:08:31;;;;;;;1.48;0.95;;;10.70;98.80;;;;;;5094451;28;20051;-71
2024/03/01 09:10:58;;;;;;;0.98;0.80;;;10.80;98.80;;;;;;5092936;28;20070;-70
2024/03/01 09:13:25;;;;;;;1.52;1.23;;;10.70;99.00;;;;;;5105679;28;20032;-71
2024/03/01 09:15:53;;;;;;;1.38;0.75;;;10.70;98.90;;;;;;5092628;28;20074;-71
2024/03/01 09:18:42;;;;;;;0.80;0.80;;;10.80;99.00;;;;;;5094774;28;20070;-71
2024/03/01 09:21:35;;;;;;;1.08;0.98;;;10.80;99.00;;;;;;5090509;28;20040;-75
2024/03/01 09:24:02;;;;;;;2.57;1.17;;;10.90;99.10;;;;;;5096893;28;20450;-72
2024/03/01 09:26:31;;;;;;;3.47;1.08;;;10.90;98.90;;;;;;5108236;28;20030;-72
2024/03/01 09:29:02;;;;;;;0.45;0.45;;;11.00;98.80;;;;;;5094030;28;20036;-71
2024/03/01 09:31:31;;;;;;;1.80;0.80;;;11.00;98.80;;;;;;5100621;28;20164;-72
2024/03/01 09:33:58;;;;;;;1.20;0.65;;;11.10;98.70;;;;;;5104370;28;20413;-72
2024/03/01 09:36:24;;;;;;;1.05;0.47;;;11.20;98.70;;;;;;5093468;28;20036;-72
2024/03/01 09:38:54;;;;;;;0.60;0.60;;;11.20;98.70;;;;;;5090953;28;20093;-72
2024/03/01 09:41:34;;;;;;;1.30;0.93;;;11.30;98.60;;;;;;5104169;28;20110;-72
2024/03/01 09:44:03;;;;;;;0.32;0.32;;;11.30;98.40;;;;;;5091689;28;20387;-72
2024/03/01 09:46:42;;;;;;;1.05;0.77;;;11.30;98.30;;;;;;5094619;28;20027;-72
2024/03/01 09:49:25;;;;;;;0.70;0.70;;;11.30;98.20;;;;;;5096387;28;20044;-71
2024/03/01 09:52:08;;;;;;;2.63;1.20;;;11.30;98.20;;;;;;5103475;28;20036;-72
2024/03/01 09:55:15;;;;;;;0.40;0.40;;;11.30;98.10;;;;;;5094475;28;20087;-72
2024/03/01 09:58:04;;;;;;;0.50;0.50;;;11.30;98.20;;;;;;5062575;28;20039;-72
2024/03/01 10:00:33;;;;;;;0.82;0.75;;;11.30;98.20;;;;;;5089892;28;20032;-72
2024/03/01 10:03:35;;;;;;;3.92;0.75;;;11.30;98.10;;;;;;5096223;28;20110;-72
2024/03/01 10:06:07;;;;;;;0.50;0.50;;;11.30;98.10;;;;;;5102219;28;20046;-72
2024/03/01 10:09:07;;;;;;;0.98;0.95;;;11.40;97.80;;;;;;5096766;28;20044;-72
2024/03/01 10:11:36;;;;;;;0.57;0.57;;;11.30;97.70;;;;;;5100978;28;20122;-72
2024/03/01 10:14:16;;;;;;;1.45;0.90;;;11.30;97.80;;;;;;5101546;28;20028;-72
2024/03/01 10:17:01;;;;;;;0.57;0.57;;;11.30;97.60;;;;;;5103640;28;20059;-73
2024/03/01 10:19:43;;;;;;;0.55;0.55;;;11.30;97.80;;;;;;5092518;28;20075;-72
2024/03/01 10:22:50;;;;;;;0.60;0.60;;;11.30;97.90;;;;;;5094643;28;20115;-72
2024/03/01 10:25:28;;;;;;;0.82;0.82;;;11.30;97.70;;;;;;5104171;27;20032;-72
2024/03/01 10:28:30;;;;;;;1.40;0.95;;;11.30;97.80;;;;;;5091125;28;20119;-72
2024/03/01 10:31:06;;;;;;;3.30;0.95;;;11.30;97.90;;;;;;5103391;28;20039;-72
2024/03/01 10:34:04;;;;;;;2.60;1.40;;;11.30;97.40;;;;;;5094799;28;20107;-72
2024/03/01 10:36:43;;;;;;;1.05;0.98;;;11.20;97.50;;;;;;5062870;28;20127;-70
2024/03/01 10:39:17;;;;;;;3.00;1.30;;;11.30;97.60;;;;;;5098284;28;20399;-70
2024/03/01 10:42:07;;;;;;;4.32;1.50;;;11.30;97.60;;;;;;5091286;28;20044;-71
2024/03/01 10:44:43;;;;;;;2.38;1.40;;;11.30;97.70;;;;;;5094267;28;20036;-73
2024/03/01 10:47:21;;;;;;;1.25;1.05;;;11.30;97.80;;;;;;5094884;28;20543;-72
2024/03/01 10:50:12;;;;;;;1.92;1.25;;;11.30;97.80;;;;;;5092303;28;21390;-73
2024/03/01 10:52:54;;;;;;;1.27;1.17;;;11.30;97.70;;;;;;5092981;28;20494;-73
2024/03/01 10:55:42;;;;;;;4.57;1.80;;;11.30;97.80;;;;;;5108044;28;20023;-74
2024/03/01 10:58:41;;;;;;;1.52;0.85;;;11.40;98.20;;;;;;5089731;28;20350;-73
2024/03/01 11:01:22;;;;;;;3.05;0.77;;;11.60;97.90;;;;;;5040791;28;20036;-73
2024/03/01 11:03:59;;;;;;;2.17;1.45;;;11.60;97.80;;;;;;5091227;28;20024;-73
2024/03/01 11:06:38;;;;;;;0.68;0.68;;;11.70;97.60;;;;;;5094064;28;20035;-74
2024/03/01 11:09:18;;;;;;;2.35;1.05;;;11.70;97.50;;;;;;5088404;28;20036;-75
2024/03/01 11:12:02;;;;;;;0.40;0.40;;;11.70;97.40;;;;;;5099747;28;20034;-72
2024/03/01 11:14:31;;;;;;;0.52;0.52;;;11.80;97.50;;;;;;5098255;28;20043;-72
2024/03/01 11:16:58;;;;;;;2.10;1.13;;;11.70;97.50;;;;;;5104938;28;20112;-72
2024/03/01 11:19:28;;;;;;;1.08;0.93;;;11.80;97.50;;;;;;5110194;28;20212;-72
2024/03/01 11:22:21;;;;;;;1.67;1.27;;;11.90;97.60;;;;;;5092420;28;20035;-72
2024/03/01 11:25:00;;;;;;;0.50;0.50;;;12.00;97.60;;;;;;5095475;27;20086;-72
2024/03/01 11:27:28;;;;;;;3.00;1.60;;;12.10;97.50;;;;;;5100873;28;20032;-72
2024/03/01 11:30:04;;;;;;;5.75;1.27;;;12.10;97.60;;;;;;5093248;28;20043;-72
2024/03/01 11:32:34;;;;;;;3.40;1.50;;;12.20;97.40;;;;;;5105540;28;20035;-72
2024/03/01 11:35:09;;;;;;;2.65;1.27;;;12.30;97.30;;;;;;5096796;28;20081;-71
2024/03/01 11:38:07;;;;;;;0.77;0.73;;;12.30;97.20;;;;;;5096376;28;20024;-72
2024/03/01 11:40:38;;;;;;;2.25;1.27;;;12.30;97.20;;;;;;5088917;28;20154;-72
2024/03/01 11:43:29;;;;;;;0.60;0.45;;;12.40;97.10;;;;;;5098009;28;20042;-72
2024/03/01 11:46:23;;;;;;;0.90;0.90;;;12.40;97.00;;;;;;5089515;28;20036;-73
2024/03/01 11:48:48;;;;;;;;;;;12.40;97.10;;;;;;5097620;28;20050;-73
2024/03/01 11:51:42;;;;;;;1.90;1.48;;;12.30;96.90;;;;;;5092496;28;19911;-70
2024/03/01 11:54:42;;;;;;;0.73;0.73;;;12.30;97.10;;;;;;5092360;28;20202;-70
2024/03/01 11:57:20;;;;;;;1.98;1.25;;;12.30;97.10;;;;;;5089463;28;20544;-70
2024/03/01 12:00:26;;;;;;;3.92;1.70;;;12.30;97.20;;;;;;5096463;28;20040;-70
2024/03/01 12:03:07;;;;;;;1.30;1.15;;;12.30;97.20;;;;;;5097732;28;20479;-71
2024/03/01 12:05:50;;;;;;;2.35;0.85;;;12.50;97.50;;;;;;5099228;28;20046;-71
2024/03/01 12:08:53;;;;;;;7.35;1.48;;;12.50;97.10;;;;;;5088214;28;20416;-71
2024/03/01 12:11:41;;;;;;;7.38;1.70;;;12.50;97.10;;;;;;5095730;28;20375;-72
2024/03/01 12:14:11;;;;;;;3.03;0.90;;;12.50;97.10;;;;;;5092016;28;20122;-72
2024/03/01 12:17:01;;;;;;;2.10;1.08;;;12.60;97.10;;;;;;5092019;28;20049;-72
2024/03/01 12:19:56;;;;;;;4.07;1.20;;;12.60;97.10;;;;;;5091831;28;20453;-72
2024/03/01 12:22:44;;;;;;;2.55;1.45;;;12.60;97.20;;;;;;5102610;28;20031;-72
2024/03/01 12:25:10;;;;;;;1.30;1.10;;;12.60;97.20;;;;;;5108764;28;20031;-72
2024/03/01 12:28:22;;;;;;;0.80;0.80;;;12.60;97.20;;;;;;5100602;28;20043;-73
2024/03/01 12:31:11;;;;;;;2.50;1.75;;;12.70;97.40;;;;;;5103584;28;20040;-72
2024/03/01 12:33:47;;;;;;;5.82;2.33;;;12.80;97.60;;;;;;5096065;28;20111;-73
2024/03/01 12:36:34;;;;;;;5.18;2.00;;;12.80;97.50;;;;;;5088106;28;20040;-72
2024/03/01 12:39:03;;;;;;;5.95;2.20;;;12.90;97.90;;;;;;5103659;28;20038;-72
2024/03/01 12:42:05;;;;;;;4.68;2.40;;;12.90;98.10;;;;;;5108853;28;20038;-72
2024/03/01 12:45:05;;;;;;;4.25;1.85;;;13.00;97.50;;;;;;5094832;28;20035;-72
2024/03/01 12:47:46;;;;;;;2.33;1.98;;;13.10;97.80;;;;;;5096549;28;20055;-72
2024/03/01 12:50:49;;;;;;;2.63;1.50;;;13.20;98.00;;;;;;5085351;28;20043;-75
2024/03/01 12:53:33;;;;;;;3.10;1.55;;;13.20;97.80;;;;;;5069734;28;20070;-72
2024/03/01 12:56:21;;;;;;;3.80;1.67;;;13.30;97.60;;;;;;5090367;28;20470;-72
2024/03/01 12:59:39;;;;;;;5.90;2.05;;;13.30;97.50;;;;;;5092813;28;20050;-73
2024/03/01 13:02:27;;;;;;;2.10;1.73;;;13.40;97.60;;;;;;5019922;28;20041;-72
2024/03/01 13:04:59;;;;;;;5.25;2.10;;;13.40;97.60;;;;;;5087933;28;20465;-73
2024/03/01 13:07:28;;;;;;;7.60;2.40;;;13.30;97.90;;;;;;5104841;28;20494;-72